createdAt,value
2018-04-06T00:02:06.485Z,66.37
2018-04-06T00:04:37.407Z,66.20
2018-04-06T00:07:08.360Z,66.25
2018-04-06T00:09:39.208Z,66.25
2018-04-06T00:12:10.198Z,66.21
2018-04-06T00:14:41.080Z,65.97
2018-04-06T00:17:12.461Z,66.85
2018-04-06T00:19:43.351Z,67.50
2018-04-06T00:22:14.244Z,67.31
2018-04-06T00:24:45.118Z,67.23
2018-04-06T00:27:16.424Z,67.57
2018-04-06T00:29:47.278Z,67.73
2018-04-06T00:32:17.952Z,68.30
2018-04-06T00:34:49.331Z,68.43
2018-04-06T00:37:19.974Z,68.64
2018-04-06T00:39:50.590Z,68.93
2018-04-06T00:42:21.654Z,69.51
2018-04-06T00:44:52.487Z,69.48
2018-04-06T00:47:23.505Z,69.86
2018-04-06T00:49:54.137Z,70.37
2018-04-06T00:52:24.611Z,70.61
2018-04-06T00:54:55.595Z,70.15
2018-04-06T00:57:26.539Z,70.04
2018-04-06T00:59:57.058Z,70.19
2018-04-06T01:02:27.560Z,70.47
2018-04-06T01:04:58.543Z,70.80
2018-04-06T01:07:29.481Z,70.64
2018-04-06T01:10:00.472Z,71.08
2018-04-06T01:12:31.556Z,70.34
2018-04-06T01:15:02.499Z,70.64
2018-04-06T01:17:33.535Z,70.89
2018-04-06T01:20:03.746Z,71.04
2018-04-06T01:22:34.501Z,70.79
2018-04-06T01:25:05.513Z,70.21
2018-04-06T01:27:36.225Z,70.58
2018-04-06T01:30:08.874Z,70.37
2018-04-06T01:32:38.254Z,70.78
2018-04-06T01:35:08.861Z,70.82
2018-04-06T01:37:39.713Z,70.61
2018-04-06T01:40:10.436Z,70.71
2018-04-06T01:42:41.653Z,71.07
2018-04-06T01:45:12.557Z,70.97
2018-04-06T01:47:43.591Z,71.13
2018-04-06T01:50:14.540Z,71.09
2018-04-06T01:52:45.601Z,71.00
2018-04-06T01:55:16.616Z,71.10
2018-04-06T01:57:47.529Z,71.35
2018-04-06T02:00:18.560Z,71.63
2018-04-06T02:02:49.585Z,71.77
2018-04-06T02:05:21.506Z,72.03
2018-04-06T02:07:52.215Z,71.63
2018-04-06T02:10:22.696Z,71.64
2018-04-06T02:12:53.585Z,71.86
2018-04-06T02:15:24.249Z,72.37
2018-04-06T02:17:54.944Z,72.35
2018-04-06T02:20:25.620Z,71.81
2018-04-06T02:22:56.577Z,72.05
2018-04-06T02:25:27.608Z,72.24
2018-04-06T02:27:58.530Z,72.07
2018-04-06T02:30:29.498Z,72.40
2018-04-06T02:33:00.610Z,72.29
2018-04-06T02:35:31.504Z,71.36
2018-04-06T02:38:02.203Z,71.39
2018-04-06T02:40:32.848Z,70.94
2018-04-06T02:43:03.902Z,71.50
2018-04-06T02:45:34.598Z,71.59
2018-04-06T02:48:05.515Z,71.32
2018-04-06T02:50:36.123Z,72.30
2018-04-06T02:53:06.827Z,72.14
2018-04-06T02:55:37.556Z,72.23
2018-04-06T02:58:09.117Z,72.68
2018-04-06T03:00:39.838Z,72.45
2018-04-06T03:03:10.697Z,72.24
2018-04-06T03:05:41.537Z,72.39
2018-04-06T03:08:12.459Z,71.54
2018-04-06T03:10:43.432Z,71.64
2018-04-06T03:13:14.394Z,71.46
2018-04-06T03:15:45.368Z,71.42
2018-04-06T03:18:16.949Z,71.29
2018-04-06T03:20:46.825Z,70.31
2018-04-06T03:23:17.625Z,70.45
2018-04-06T03:25:48.481Z,70.82
2018-04-06T03:28:19.542Z,70.60
2018-04-06T03:30:50.580Z,70.86
2018-04-06T03:33:21.653Z,70.50
2018-04-06T03:35:52.663Z,70.69
2018-04-06T03:38:23.548Z,70.48
2018-04-06T03:40:54.449Z,70.49
2018-04-06T03:43:25.641Z,70.79
2018-04-06T03:45:56.545Z,71.20
2018-04-06T03:48:27.571Z,70.67
2018-04-06T03:50:58.372Z,70.64
2018-04-06T03:53:29.442Z,70.66
2018-04-06T03:56:00.128Z,70.77
2018-04-06T03:58:30.684Z,70.31
2018-04-06T04:01:01.488Z,70.17
2018-04-06T04:03:32.528Z,70.02
2018-04-06T04:06:03.491Z,69.77
2018-04-06T04:08:34.532Z,70.93
2018-04-06T04:11:05.507Z,70.69
2018-04-06T04:13:36.539Z,70.56
2018-04-06T04:16:06.998Z,70.58
2018-04-06T04:18:37.564Z,70.86
2018-04-06T04:21:08.533Z,70.92
2018-04-06T04:23:39.229Z,71.29
2018-04-06T04:26:09.836Z,71.16
2018-04-06T04:28:40.637Z,70.74
2018-04-06T04:31:11.664Z,70.82
2018-04-06T04:33:42.540Z,70.85
2018-04-06T04:36:13.542Z,70.56
2018-04-06T04:38:44.621Z,70.81
2018-04-06T04:41:15.577Z,70.62
2018-04-06T04:43:46.777Z,70.39
2018-04-06T04:46:17.555Z,70.75
2018-04-06T04:48:48.589Z,70.75
2018-04-06T04:51:20.221Z,71.46
2018-04-06T04:53:49.993Z,71.26
2018-04-06T04:56:20.568Z,71.05
2018-04-06T04:58:51.222Z,71.12
2018-04-06T05:01:21.926Z,70.09
2018-04-06T05:03:52.448Z,70.82
2018-04-06T05:06:23.299Z,71.40
2018-04-06T05:08:54.378Z,71.21
2018-04-06T05:11:25.340Z,71.53
2018-04-06T05:13:56.395Z,70.33
2018-04-06T05:16:27.419Z,68.64
2018-04-06T05:18:58.472Z,68.79
2018-04-06T05:21:29.487Z,68.45
2018-04-06T05:24:00.558Z,67.15
2018-04-06T05:26:31.429Z,67.70
2018-04-06T05:29:02.455Z,66.94
2018-04-06T05:31:33.112Z,66.69
2018-04-06T05:34:04.699Z,66.89
2018-04-06T05:36:39.769Z,66.72
2018-04-06T05:39:09.192Z,66.21
2018-04-06T05:41:38.737Z,66.33
2018-04-06T05:44:08.266Z,66.12
2018-04-06T05:46:38.955Z,65.91
2018-04-06T05:49:10.552Z,65.74
2018-04-06T05:51:41.234Z,64.36
2018-04-06T05:54:11.932Z,65.08
2018-04-06T05:56:42.701Z,63.58
2018-04-06T05:59:13.136Z,64.05
2018-04-06T06:01:43.665Z,63.78
2018-04-06T06:04:14.817Z,63.42
2018-04-06T06:06:45.638Z,63.71
2018-04-06T06:09:16.435Z,64.12
2018-04-06T06:11:47.772Z,64.33
2018-04-06T06:14:18.749Z,63.68
2018-04-06T06:16:49.179Z,64.84
2018-04-06T06:19:19.882Z,64.27
2018-04-06T06:21:50.559Z,63.50
2018-04-06T06:24:21.544Z,63.58
2018-04-06T06:26:52.276Z,63.68
2018-04-06T06:29:22.932Z,63.03
2018-04-06T06:31:54.533Z,63.18
2018-04-06T06:34:24.771Z,63.43
2018-04-06T06:36:55.182Z,63.29
2018-04-06T06:39:25.078Z,62.62
2018-04-06T06:41:55.688Z,62.65
2018-04-06T06:44:27.335Z,62.53
2018-04-06T06:46:58.034Z,61.86
2018-04-06T06:49:28.549Z,62.57
2018-04-06T06:51:59.600Z,61.94
2018-04-06T06:54:30.252Z,61.77
2018-04-06T06:57:00.980Z,61.57
2018-04-06T06:59:31.585Z,61.65
2018-04-06T07:02:02.264Z,61.44
2018-04-06T09:35:30.112Z,43.08
2018-04-06T09:37:59.416Z,42.84
2018-04-06T09:40:28.680Z,43.69
2018-04-06T09:42:58.052Z,41.39
2018-04-06T09:45:27.333Z,40.92
2018-04-06T09:47:56.660Z,41.56
2018-04-06T09:50:26.097Z,40.80
2018-04-06T09:52:55.384Z,41.17
2018-04-06T09:55:24.630Z,39.49
2018-04-06T09:57:53.966Z,40.31
2018-04-06T10:00:28.607Z,39.05
2018-04-06T10:02:57.810Z,39.31
2018-04-06T10:05:27.081Z,38.47
2018-04-06T10:07:56.316Z,39.61
2018-04-06T10:10:25.648Z,39.04
2018-04-06T10:12:54.673Z,39.85
2018-04-06T10:15:23.832Z,39.86
2018-04-06T10:17:52.855Z,40.16
2018-04-06T10:20:21.825Z,40.10
2018-04-06T10:22:50.786Z,38.82
2018-04-06T10:25:19.848Z,37.12
2018-04-06T10:27:48.906Z,36.17
2018-04-06T10:30:18.138Z,37.94
2018-04-06T10:32:47.141Z,35.29
2018-04-06T10:35:16.107Z,34.80
2018-04-06T10:37:45.189Z,34.98
2018-04-06T10:40:14.287Z,34.84
2018-04-06T10:42:43.266Z,34.04
2018-04-06T10:45:12.222Z,33.26
2018-04-06T10:47:41.278Z,32.72
2018-04-06T10:50:10.316Z,33.69
2018-04-06T10:52:39.269Z,34.55
2018-04-06T10:55:08.300Z,34.65
2018-04-06T10:57:37.298Z,34.49
2018-04-06T11:00:06.309Z,33.04
2018-04-06T11:02:35.416Z,32.66
2018-04-06T11:05:04.462Z,32.02
2018-04-06T11:07:33.517Z,32.75
2018-04-06T11:10:02.602Z,33.19
2018-04-06T11:12:31.647Z,33.14
2018-04-06T11:15:00.638Z,31.92
2018-04-06T11:17:29.707Z,31.16
2018-04-06T11:19:58.686Z,32.28
2018-04-06T11:22:27.522Z,31.51
2018-04-06T11:24:56.609Z,30.48
2018-04-06T11:27:25.618Z,31.12
2018-04-06T11:29:54.641Z,30.16
2018-04-06T11:32:23.722Z,29.24
2018-04-06T11:34:52.721Z,27.74
2018-04-06T11:37:39.535Z,29.14
2018-04-06T11:40:09.475Z,29.48
2018-04-06T11:43:03.702Z,28.89
2018-04-06T11:45:32.756Z,28.04
2018-04-06T11:48:01.812Z,28.65
2018-04-06T11:50:30.795Z,27.33
2018-04-06T11:52:59.811Z,26.99
2018-04-06T11:55:28.867Z,27.48
2018-04-06T11:57:58.779Z,27.13
2018-04-06T12:00:27.822Z,28.20
2018-04-06T12:02:56.869Z,27.37
2018-04-06T12:07:54.012Z,26.29
2018-04-06T12:10:23.288Z,25.16
2018-04-06T12:12:52.105Z,26.50
2018-04-06T12:15:21.407Z,26.17
2018-04-06T12:17:50.624Z,26.64
2018-04-06T12:20:19.594Z,25.82
2018-04-06T12:22:48.559Z,26.78
2018-04-06T12:25:17.691Z,24.77
2018-04-06T12:27:46.679Z,25.40
2018-04-06T12:30:15.719Z,27.80
2018-04-06T12:32:44.781Z,28.27
2018-04-06T12:35:13.777Z,30.48
2018-04-06T12:37:42.563Z,27.19
2018-04-06T12:40:11.750Z,24.88
2018-04-06T12:42:40.796Z,26.43
2018-04-06T12:45:09.714Z,25.58
2018-04-06T12:47:38.741Z,25.89
2018-04-06T12:50:07.739Z,25.88
2018-04-06T12:52:36.737Z,24.32
2018-04-06T12:55:05.862Z,24.55
2018-04-06T12:57:34.799Z,23.89
2018-04-06T13:00:03.716Z,24.19
2018-04-06T13:02:32.777Z,25.30
2018-04-06T13:05:01.751Z,22.33
2018-04-06T13:07:30.945Z,23.36
2018-04-06T13:10:00.008Z,22.89
2018-04-06T13:12:29.012Z,24.13
2018-04-06T13:14:57.968Z,23.28
2018-04-06T13:17:27.023Z,23.61
2018-04-06T13:19:55.996Z,23.41
2018-04-06T13:22:25.260Z,22.11
2018-04-06T13:24:54.324Z,22.57
2018-04-06T13:27:23.051Z,22.44
2018-04-06T13:29:52.523Z,22.51
2018-04-06T13:32:21.597Z,22.83
2018-04-06T13:34:51.332Z,22.53
2018-04-06T13:37:20.286Z,23.08
2018-04-06T13:39:49.304Z,22.95
2018-04-06T13:42:18.369Z,22.87
2018-04-06T13:44:47.313Z,22.86
2018-04-06T13:47:16.366Z,21.20
2018-04-06T13:49:45.436Z,20.76
2018-04-06T13:52:14.405Z,20.42
2018-04-06T13:54:43.497Z,21.08
2018-04-06T13:57:12.493Z,21.68
2018-04-06T13:59:42.986Z,22.86
2018-04-06T14:02:12.045Z,21.77
2018-04-06T14:04:41.070Z,22.52
2018-04-06T14:07:10.042Z,21.54
2018-04-06T14:09:39.091Z,22.85
2018-04-06T14:12:08.132Z,22.93
2018-04-06T14:14:36.857Z,23.13
2018-04-06T14:17:05.903Z,22.87
2018-04-06T14:19:34.925Z,22.71
2018-04-06T14:22:03.942Z,22.95
2018-04-06T14:24:32.992Z,23.53
2018-04-06T14:27:01.968Z,23.52
2018-04-06T14:29:30.994Z,23.31
2018-04-06T14:32:00.060Z,23.20
2018-04-06T14:34:29.059Z,23.40
2018-04-06T14:36:58.243Z,22.40
2018-04-06T14:39:27.284Z,22.87
2018-04-06T14:41:56.308Z,22.22
2018-04-06T14:44:25.405Z,23.44
2018-04-06T14:46:54.450Z,22.93
2018-04-06T14:49:23.447Z,24.20
2018-04-06T14:51:52.503Z,24.37
2018-04-06T14:54:21.614Z,23.33
2018-04-06T14:56:50.688Z,23.44
2018-04-06T14:59:19.651Z,23.95
2018-04-06T15:01:48.713Z,24.33
2018-04-06T15:04:17.698Z,24.41
2018-04-06T15:06:47.177Z,24.58
2018-04-06T15:09:18.294Z,23.59
2018-04-06T15:11:47.279Z,24.77
2018-04-06T15:14:16.261Z,24.55
2018-04-06T15:16:45.279Z,24.62
2018-04-06T15:19:14.302Z,24.59
2018-04-06T15:21:43.865Z,24.38
2018-04-06T15:24:12.933Z,24.40
2018-04-06T15:26:42.986Z,24.28
2018-04-06T15:29:12.009Z,23.35
2018-04-06T15:31:41.165Z,24.17
2018-04-06T15:34:10.458Z,23.70
2018-04-06T15:36:39.412Z,24.18
2018-04-06T15:39:08.478Z,23.29
2018-04-06T15:41:37.996Z,23.53
2018-04-06T15:44:07.305Z,23.05
2018-04-06T15:46:36.614Z,23.95
2018-04-06T15:49:05.316Z,24.21
2018-04-06T15:51:34.295Z,24.52
2018-04-06T15:54:03.424Z,24.18
2018-04-06T15:56:32.395Z,25.01
2018-04-06T15:59:01.390Z,25.09
2018-04-06T16:01:30.599Z,24.98
2018-04-06T16:04:00.469Z,24.93
2018-04-06T16:06:29.630Z,25.27
2018-04-06T16:08:58.705Z,25.13
2018-04-06T16:11:27.726Z,24.71
2018-04-06T16:13:56.607Z,24.65
2018-04-06T16:16:25.569Z,24.72
2018-04-06T16:18:54.369Z,25.75
2018-04-06T16:21:23.688Z,25.41
2018-04-06T16:23:52.677Z,25.12
2018-04-06T16:26:21.695Z,25.35
2018-04-06T16:28:50.711Z,25.41
2018-04-06T16:31:19.856Z,25.25
2018-04-06T16:33:48.850Z,25.11
2018-04-06T16:36:18.442Z,24.60
2018-04-06T16:38:49.630Z,24.04
2018-04-06T16:41:19.081Z,24.52
2018-04-06T16:43:48.664Z,24.46
2018-04-06T16:46:17.646Z,24.44
2018-04-06T16:48:46.696Z,24.76
2018-04-06T16:51:15.808Z,25.07
2018-04-06T16:53:44.763Z,25.49
2018-04-06T16:56:13.743Z,25.68
2018-04-06T16:58:42.801Z,25.95
2018-04-06T17:01:16.088Z,26.49
2018-04-06T17:03:47.483Z,26.86
2018-04-06T19:20:30.920Z,40.87
2018-04-06T19:22:59.813Z,41.60
2018-04-06T19:25:28.796Z,41.21
2018-04-06T19:27:57.885Z,41.57
2018-04-06T19:30:26.916Z,41.63
2018-04-06T19:32:55.990Z,41.70
2018-04-06T19:35:25.138Z,42.22
2018-04-06T19:37:54.155Z,42.49
2018-04-06T19:40:23.175Z,42.90
2018-04-06T19:42:52.268Z,42.93
2018-04-06T19:45:21.288Z,43.25
2018-04-06T19:47:50.248Z,43.78
2018-04-06T19:50:19.381Z,44.62
2018-04-06T19:52:48.431Z,43.89
2018-04-06T19:55:17.791Z,43.82
2018-04-06T19:57:46.864Z,43.80
2018-04-06T20:00:16.159Z,44.52
2018-04-06T20:02:45.175Z,45.66
2018-04-06T20:05:14.316Z,45.60
2018-04-06T20:07:43.391Z,45.72
2018-04-06T20:10:12.381Z,46.06
2018-04-06T20:12:41.512Z,45.97
2018-04-06T20:15:10.507Z,46.33
2018-04-06T20:17:39.499Z,46.94
2018-04-06T20:20:08.545Z,46.68
2018-04-06T20:22:37.980Z,46.64
2018-04-06T20:25:07.019Z,47.87
2018-04-06T20:27:36.359Z,47.74
2018-04-06T20:30:05.705Z,48.03
2018-04-06T20:32:35.022Z,48.23
2018-04-06T20:35:04.105Z,47.57
2018-04-06T20:37:32.981Z,47.58
2018-04-06T20:40:02.270Z,47.63
2018-04-06T20:42:31.632Z,48.20
2018-04-06T20:45:00.748Z,47.81
2018-04-06T20:47:30.230Z,47.37
2018-04-06T20:49:59.527Z,47.63
2018-04-06T20:52:28.788Z,47.48
2018-04-06T20:54:58.315Z,47.86
2018-04-06T20:57:27.620Z,49.13
2018-04-06T20:59:56.900Z,47.99
2018-04-06T21:02:26.204Z,47.58
2018-04-06T21:04:55.604Z,47.48
2018-04-06T21:07:24.896Z,47.82
2018-04-06T21:09:54.204Z,49.05
2018-04-06T21:12:23.465Z,48.95
2018-04-06T21:14:52.745Z,48.83
2018-04-06T21:17:22.262Z,48.90
2018-04-06T21:19:51.544Z,49.13
2018-04-06T21:22:20.669Z,49.59
2018-04-06T21:24:50.219Z,49.61
2018-04-06T21:27:19.478Z,49.64
2018-04-06T21:29:48.660Z,49.53
2018-04-06T21:32:18.093Z,49.89
2018-04-06T21:34:47.449Z,50.31
2018-04-06T21:37:16.695Z,50.33
2018-04-06T21:39:46.029Z,50.69
2018-04-06T21:42:15.323Z,51.16
2018-04-06T21:44:44.492Z,51.72
2018-04-06T21:47:13.730Z,51.80
2018-04-06T21:49:43.022Z,51.47
2018-04-06T21:52:12.318Z,51.73
2018-04-06T21:54:41.683Z,51.55
2018-04-06T21:57:10.802Z,51.88
2018-04-06T21:59:40.186Z,52.12
2018-04-06T22:02:09.394Z,52.33
2018-04-06T22:04:38.740Z,52.19
2018-04-06T22:07:08.037Z,52.02
2018-04-06T22:09:37.297Z,52.23
2018-04-06T22:12:06.560Z,52.73
2018-04-06T22:14:35.841Z,52.65
2018-04-06T22:17:05.188Z,52.89
2018-04-06T22:19:34.483Z,53.01
2018-04-06T22:22:03.767Z,52.99
2018-04-06T22:24:33.108Z,52.94
2018-04-06T22:27:02.483Z,53.03
2018-04-06T22:29:31.736Z,52.94
2018-04-06T22:32:01.072Z,53.23
2018-04-06T22:34:30.361Z,53.72
2018-04-06T22:36:59.611Z,53.98
2018-04-06T22:39:29.100Z,54.30
2018-04-06T22:41:58.400Z,54.71
2018-04-06T22:44:28.068Z,54.47
2018-04-06T22:46:57.536Z,54.48
2018-04-06T22:49:30.205Z,55.08
2018-04-06T22:51:59.572Z,55.55
2018-04-06T22:54:30.248Z,55.53
2018-04-06T22:57:00.945Z,54.76
2018-04-06T22:59:30.451Z,54.59
2018-04-06T23:02:02.089Z,54.78
2018-04-06T23:04:32.785Z,55.12
2018-04-06T23:07:04.475Z,54.90
2018-04-06T23:09:35.167Z,54.64
2018-04-06T23:12:05.943Z,55.00
2018-04-06T23:14:36.660Z,55.36
2018-04-06T23:17:07.852Z,55.37
2018-04-06T23:19:38.505Z,55.24
2018-04-06T23:22:09.220Z,55.07
2018-04-06T23:24:39.628Z,55.47
2018-04-06T23:27:10.846Z,55.48
2018-04-06T23:29:42.370Z,55.37
2018-04-06T23:32:13.330Z,55.34
2018-04-06T23:34:43.196Z,55.64
2018-04-06T23:37:13.831Z,56.00
2018-04-06T23:39:44.679Z,55.55
2018-04-06T23:42:15.478Z,55.63
2018-04-06T23:44:46.535Z,55.91
2018-04-06T23:47:17.499Z,55.99
2018-04-06T23:49:48.281Z,56.38
2018-04-06T23:52:19.637Z,56.21
2018-04-06T23:54:50.481Z,55.71
2018-04-06T23:57:22.253Z,55.68
2018-04-06T23:59:52.080Z,56.75
